PWSweather.com
Personal Weather Stations
Station Observations
KNCCHINA3
Red Tractor Trail, China Grove, NC 28023

Red Tractor TrailChina Grove, NC 28023

Lat: 35.59751, Lon: -80.60201

Elevation: 800

Station Type: Oregon Scientific WMR 968

http://www.joesweathergarage.com

High Low Average
Temperature 55.3°F12.9°C 31.0°F-0.6°C 41.8°F5.4°C
Dew Point 30.9°F-0.6°C 18.1°F-7.7°C 24.3°F-4.3°C
Winds 17.8 mph 28.6 kmh Calm Calm 5.0 mph SW8.0 kmh SW
Wind Gusts 26.4 mph42.5 kmh -- 10.0 mph16.1 kmh
Humidity 86% 30% 52%
Pressure 30.06 in1017.9 mb 29.88 in1011.9 mb -
Precipitation 0.04 in1.0 mm - -
Hour Temp Dew Point Humidity Winds Wind Gusts Pressure Precip Precip Rate Daily Precip Total
12:04 AM 36.6°F2.6°C 28.4°F-2.0°C 72% 4.9 mph NW7.9 kmh NW 8.6 mph13.8 kmh 29.91 in1012.9 mb 0.00 in0.0 mm 0.00 in0.0 mm 0.00 in0.0 mm
12:09 AM 36.6°F2.6°C 28.8°F-1.8°C 73% 3.7 mph NNW6.0 kmh NNW 8.6 mph13.8 kmh 29.91 in1012.9 mb 0.00 in0.0 mm 0.00 in0.0 mm 0.00 in0.0 mm
12:14 AM 36.6°F2.6°C 28.8°F-1.8°C 73% 5.2 mph N8.4 kmh N 8.6 mph13.8 kmh 29.91 in1012.9 mb 0.00 in0.0 mm 0.00 in0.0 mm 0.00 in0.0 mm
12:19 AM 36.6°F2.6°C 28.8°F-1.8°C 73% 2.7 mph NNW4.3 kmh NNW 8.6 mph13.8 kmh 29.91 in1012.9 mb 0.00 in0.0 mm 0.00 in0.0 mm 0.00 in0.0 mm
12:25 AM 36.6°F2.6°C 29.1°F-1.6°C 74% 3.2 mph NNW5.1 kmh NNW 5.8 mph9.3 kmh 29.91 in1012.9 mb 0.00 in0.0 mm 0.00 in0.0 mm 0.00 in0.0 mm
12:30 AM 36.8°F2.7°C 29.0°F-1.7°C 73% 3.4 mph NW5.5 kmh NW 5.8 mph9.3 kmh 29.91 in1012.9 mb 0.00 in0.0 mm 0.00 in0.0 mm 0.00 in0.0 mm
12:35 AM 36.8°F2.7°C 29.0°F-1.7°C 73% 2.8 mph NNW4.5 kmh NNW 5.8 mph9.3 kmh 29.91 in1012.9 mb 0.00 in0.0 mm 0.00 in0.0 mm 0.00 in0.0 mm
12:40 AM 36.8°F2.7°C 29.0°F-1.7°C 73% 3.2 mph NNW5.1 kmh NNW 5.4 mph8.7 kmh 29.91 in1012.9 mb 0.00 in0.0 mm 0.00 in0.0 mm 0.00 in0.0 mm
12:45 AM 36.8°F2.7°C 28.6°F-1.9°C 72% 4.4 mph NW7.1 kmh NW 5.4 mph8.7 kmh 29.91 in1012.9 mb 0.00 in0.0 mm 0.00 in0.0 mm 0.00 in0.0 mm
12:50 AM 36.8°F2.7°C 29.0°F-1.7°C 73% 2.8 mph NW4.5 kmh NW 5.4 mph8.7 kmh 29.91 in1012.9 mb 0.00 in0.0 mm 0.00 in0.0 mm 0.00 in0.0 mm
12:56 AM 36.6°F2.6°C 28.8°F-1.8°C 73% 3.1 mph NW5.0 kmh NW 5.0 mph8.0 kmh 29.88 in1011.9 mb 0.00 in0.0 mm 0.00 in0.0 mm 0.00 in0.0 mm
01:01 AM 36.6°F2.6°C 28.4°F-2.0°C 72% 4.1 mph NNW6.6 kmh NNW 5.4 mph8.7 kmh 29.88 in1011.9 mb 0.00 in0.0 mm 0.00 in0.0 mm 0.00 in0.0 mm
01:06 AM 36.8°F2.7°C 28.3°F-2.1°C 71% 4.8 mph NNW7.7 kmh NNW 6.2 mph10.0 kmh 29.88 in1011.9 mb 0.00 in0.0 mm 0.00 in0.0 mm 0.00 in0.0 mm
01:11 AM 36.6°F2.6°C 28.1°F-2.2°C 71% 6.8 mph N10.9 kmh N 7.6 mph12.2 kmh 29.91 in1012.9 mb 0.00 in0.0 mm 0.00 in0.0 mm 0.00 in0.0 mm
01:16 AM 36.8°F2.7°C 27.9°F-2.3°C 70% 5.6 mph NNW9.0 kmh NNW 8.0 mph12.9 kmh 29.91 in1012.9 mb 0.00 in0.0 mm 0.00 in0.0 mm 0.00 in0.0 mm
01:21 AM 36.8°F2.7°C 27.9°F-2.3°C 70% 5.0 mph NW8.0 kmh NW 8.0 mph12.9 kmh 29.91 in1012.9 mb 0.00 in0.0 mm 0.00 in0.0 mm 0.00 in0.0 mm
01:26 AM 36.6°F2.6°C 27.8°F-2.3°C 70% 5.6 mph NW9.0 kmh NW 7.2 mph11.6 kmh 29.91 in1012.9 mb 0.00 in0.0 mm 0.00 in0.0 mm 0.00 in0.0 mm
01:31 AM 36.4°F2.4°C 27.9°F-2.3°C 71% 5.1 mph NW8.2 kmh NW 7.6 mph12.2 kmh 29.91 in1012.9 mb 0.00 in0.0 mm 0.00 in0.0 mm 0.00 in0.0 mm
01:37 AM 36.2°F2.3°C 27.7°F-2.4°C 71% 5.3 mph N8.5 kmh N 7.6 mph12.2 kmh 29.91 in1012.9 mb 0.00 in0.0 mm 0.00 in0.0 mm 0.00 in0.0 mm
01:42 AM 36.2°F2.3°C 27.0°F-2.8°C 69% 6.6 mph N10.6 kmh N 8.6 mph13.8 kmh 29.91 in1012.9 mb 0.00 in0.0 mm 0.00 in0.0 mm 0.00 in0.0 mm
01:47 AM 36.2°F2.3°C 27.4°F-2.6°C 70% 4.3 mph NW6.9 kmh NW 8.6 mph13.8 kmh 29.91 in1012.9 mb 0.00 in0.0 mm 0.00 in0.0 mm 0.00 in0.0 mm
01:52 AM 36.0°F2.2°C 26.5°F-3.1°C 68% 5.2 mph NNW8.4 kmh NNW 8.6 mph13.8 kmh 29.91 in1012.9 mb 0.00 in0.0 mm 0.00 in0.0 mm 0.00 in0.0 mm
01:57 AM 36.2°F2.3°C 25.6°F-3.6°C 65% 6.6 mph NW10.6 kmh NW 12.0 mph19.3 kmh 29.94 in1013.9 mb 0.00 in0.0 mm 0.00 in0.0 mm 0.00 in0.0 mm
02:02 AM 36.0°F2.2°C 26.1°F-3.3°C 67% 4.6 mph NW7.4 kmh NW 12.0 mph19.3 kmh 29.94 in1013.9 mb 0.00 in0.0 mm 0.00 in0.0 mm 0.00 in0.0 mm
02:07 AM 36.0°F2.2°C 25.8°F-3.4°C 66% 3.8 mph N6.1 kmh N 7.2 mph11.6 kmh 29.94 in1013.9 mb 0.00 in0.0 mm 0.00 in0.0 mm 0.00 in0.0 mm
02:12 AM 36.0°F2.2°C 25.8°F-3.4°C 66% 3.2 mph WNW5.1 kmh WNW 7.2 mph11.6 kmh 29.91 in1012.9 mb 0.00 in0.0 mm 0.00 in0.0 mm 0.00 in0.0 mm
02:17 AM 35.7°F2.1°C 25.5°F-3.6°C 66% 3.3 mph 5.3 kmh 5.8 mph9.3 kmh 29.91 in1012.9 mb 0.00 in0.0 mm 0.00 in0.0 mm 0.00 in0.0 mm
02:22 AM 35.7°F2.1°C 25.5°F-3.6°C 66% 5.4 mph W8.7 kmh W 6.8 mph10.9 kmh 29.91 in1012.9 mb 0.00 in0.0 mm 0.00 in0.0 mm 0.00 in0.0 mm
02:27 AM 35.5°F1.9°C 25.3°F-3.7°C 66% 3.2 mph NNW5.1 kmh NNW 6.8 mph10.9 kmh 29.91 in1012.9 mb 0.00 in0.0 mm 0.00 in0.0 mm 0.00 in0.0 mm
02:32 AM 35.5°F1.9°C 25.3°F-3.7°C 66% 3.2 mph NW5.1 kmh NW 5.4 mph8.7 kmh 29.91 in1012.9 mb 0.00 in0.0 mm 0.00 in0.0 mm 0.00 in0.0 mm
02:37 AM 35.5°F1.9°C 25.6°F-3.6°C 67% 2.8 mph NW4.5 kmh NW 5.4 mph8.7 kmh 29.91 in1012.9 mb 0.00 in0.0 mm 0.00 in0.0 mm 0.00 in0.0 mm
02:42 AM 35.5°F1.9°C 25.6°F-3.6°C 67% 2.5 mph NW4.0 kmh NW 5.4 mph8.7 kmh 29.94 in1013.9 mb 0.00 in0.0 mm 0.00 in0.0 mm 0.00 in0.0 mm
02:48 AM 35.3°F1.8°C 25.8°F-3.4°C 68% Calm Calm 5.4 mph8.7 kmh 29.94 in1013.9 mb 0.00 in0.0 mm 0.00 in0.0 mm 0.00 in0.0 mm
02:53 AM 35.1°F1.7°C 25.6°F-3.6°C 68% Calm Calm 2.6 mph4.2 kmh 29.94 in1013.9 mb 0.00 in0.0 mm 0.00 in0.0 mm 0.00 in0.0 mm
02:58 AM 35.1°F1.7°C 26.0°F-3.3°C 69% 2.1 mph NW3.4 kmh NW 3.2 mph5.1 kmh 29.94 in1013.9 mb 0.00 in0.0 mm 0.00 in0.0 mm 0.00 in0.0 mm
03:03 AM 35.0°F1.7°C 26.2°F-3.2°C 70% Calm Calm 3.2 mph5.1 kmh 29.94 in1013.9 mb 0.00 in0.0 mm 0.00 in0.0 mm 0.00 in0.0 mm
03:08 AM 35.3°F1.8°C 26.5°F-3.1°C 70% 3.9 mph NNW6.3 kmh NNW 6.2 mph10.0 kmh 29.94 in1013.9 mb 0.00 in0.0 mm 0.00 in0.0 mm 0.00 in0.0 mm
03:13 AM 35.9°F2.2°C 26.0°F-3.3°C 67% 3.2 mph NNW5.1 kmh NNW 17.0 mph27.4 kmh 29.91 in1012.9 mb 0.00 in0.0 mm 0.00 in0.0 mm 0.00 in0.0 mm
03:18 AM 36.2°F2.3°C 26.0°F-3.3°C 66% 3.3 mph N5.3 kmh N 17.0 mph27.4 kmh 29.91 in1012.9 mb 0.00 in0.0 mm 0.00 in0.0 mm 0.00 in0.0 mm
03:23 AM 36.2°F2.3°C 25.6°F-3.6°C 65% 4.4 mph W7.1 kmh W 13.0 mph20.9 kmh 29.91 in1012.9 mb 0.00 in0.0 mm 0.00 in0.0 mm 0.00 in0.0 mm
03:28 AM 36.0°F2.2°C 25.8°F-3.4°C 66% Calm Calm 6.8 mph10.9 kmh 29.91 in1012.9 mb 0.00 in0.0 mm 0.00 in0.0 mm 0.00 in0.0 mm
03:33 AM 36.0°F2.2°C 25.8°F-3.4°C 66% 2.1 mph 3.4 kmh 5.0 mph8.0 kmh 29.91 in1012.9 mb 0.00 in0.0 mm 0.00 in0.0 mm 0.00 in0.0 mm
03:39 AM 35.5°F1.9°C 25.6°F-3.6°C 67% 2.8 mph WSW4.5 kmh WSW 5.0 mph8.0 kmh 29.91 in1012.9 mb 0.00 in0.0 mm 0.00 in0.0 mm 0.00 in0.0 mm
03:44 AM 35.3°F1.8°C 25.5°F-3.6°C 67% 3.1 mph E5.0 kmh E 5.8 mph9.3 kmh 29.91 in1012.9 mb 0.00 in0.0 mm 0.00 in0.0 mm 0.00 in0.0 mm
03:49 AM 35.0°F1.7°C 25.5°F-3.6°C 68% 2.9 mph SSW4.7 kmh SSW 5.8 mph9.3 kmh 29.91 in1012.9 mb 0.00 in0.0 mm 0.00 in0.0 mm 0.00 in0.0 mm
03:54 AM 34.8°F1.6°C 25.7°F-3.5°C 69% 3.8 mph WSW6.1 kmh WSW 5.0 mph8.0 kmh 29.91 in1012.9 mb 0.00 in0.0 mm 0.00 in0.0 mm 0.00 in0.0 mm
03:59 AM 34.2°F1.2°C 25.1°F-3.8°C 69% 2.3 mph SSE3.7 kmh SSE 5.0 mph8.0 kmh 29.91 in1012.9 mb 0.00 in0.0 mm 0.00 in0.0 mm 0.00 in0.0 mm
04:04 AM 33.9°F1.1°C 24.8°F-4.0°C 69% Calm Calm 4.4 mph7.1 kmh 29.91 in1012.9 mb 0.00 in0.0 mm 0.00 in0.0 mm 0.00 in0.0 mm
04:10 AM 34.1°F1.2°C 25.0°F-3.9°C 69% 3.5 mph NW5.6 kmh NW 5.8 mph9.3 kmh 29.91 in1012.9 mb 0.00 in0.0 mm 0.00 in0.0 mm 0.00 in0.0 mm
04:15 AM 33.9°F1.1°C 24.8°F-4.0°C 69% 3.3 mph 5.3 kmh 5.8 mph9.3 kmh 29.91 in1012.9 mb 0.00 in0.0 mm 0.00 in0.0 mm 0.00 in0.0 mm
04:20 AM 34.1°F1.2°C 25.4°F-3.7°C 70% 2.9 mph NNW4.7 kmh NNW 5.0 mph8.0 kmh 29.91 in1012.9 mb 0.00 in0.0 mm 0.00 in0.0 mm 0.00 in0.0 mm
04:25 AM 33.9°F1.1°C 25.2°F-3.8°C 70% 3.1 mph N5.0 kmh N 5.0 mph8.0 kmh 29.91 in1012.9 mb 0.00 in0.0 mm 0.00 in0.0 mm 0.00 in0.0 mm
04:30 AM 34.2°F1.2°C 25.1°F-3.8°C 69% 4.6 mph NNW7.4 kmh NNW 7.6 mph12.2 kmh 29.91 in1012.9 mb 0.00 in0.0 mm 0.00 in0.0 mm 0.00 in0.0 mm
04:35 AM 34.2°F1.2°C 25.5°F-3.6°C 70% 4.6 mph N7.4 kmh N 7.6 mph12.2 kmh 29.91 in1012.9 mb 0.00 in0.0 mm 0.00 in0.0 mm 0.00 in0.0 mm
04:40 AM 34.2°F1.2°C 25.5°F-3.6°C 70% 3.1 mph NNW5.0 kmh NNW 7.2 mph11.6 kmh 29.88 in1011.9 mb 0.00 in0.0 mm 0.00 in0.0 mm 0.00 in0.0 mm
04:45 AM 34.2°F1.2°C 25.1°F-3.8°C 69% 5.1 mph NW8.2 kmh NW 7.2 mph11.6 kmh 29.88 in1011.9 mb 0.00 in0.0 mm 0.00 in0.0 mm 0.00 in0.0 mm
04:50 AM 34.1°F1.2°C 25.4°F-3.7°C 70% 4.1 mph NW6.6 kmh NW 7.2 mph11.6 kmh 29.88 in1011.9 mb 0.00 in0.0 mm 0.00 in0.0 mm 0.00 in0.0 mm
04:55 AM 34.1°F1.2°C 25.4°F-3.7°C 70% 3.7 mph NW6.0 kmh NW 5.8 mph9.3 kmh 29.88 in1011.9 mb 0.00 in0.0 mm 0.00 in0.0 mm 0.00 in0.0 mm
05:00 AM 34.2°F1.2°C 25.5°F-3.6°C 70% 4.4 mph NW7.1 kmh NW 6.8 mph10.9 kmh 29.88 in1011.9 mb 0.00 in0.0 mm 0.00 in0.0 mm 0.00 in0.0 mm
05:05 AM 34.2°F1.2°C 25.5°F-3.6°C 70% 3.6 mph NW5.8 kmh NW 6.2 mph10.0 kmh 29.88 in1011.9 mb 0.00 in0.0 mm 0.00 in0.0 mm 0.00 in0.0 mm
05:11 AM 34.2°F1.2°C 25.5°F-3.6°C 70% 3.8 mph NW6.1 kmh NW 5.4 mph8.7 kmh 29.91 in1012.9 mb 0.00 in0.0 mm 0.00 in0.0 mm 0.00 in0.0 mm
05:16 AM 34.4°F1.3°C 25.3°F-3.7°C 69% 4.3 mph NW6.9 kmh NW 5.4 mph8.7 kmh 29.91 in1012.9 mb 0.00 in0.0 mm 0.00 in0.0 mm 0.00 in0.0 mm
05:22 AM 34.2°F1.2°C 25.1°F-3.8°C 69% 3.8 mph NW6.1 kmh NW 5.4 mph8.7 kmh 29.91 in1012.9 mb 0.00 in0.0 mm 0.00 in0.0 mm 0.00 in0.0 mm
05:27 AM 34.2°F1.2°C 25.1°F-3.8°C 69% 3.9 mph NW6.3 kmh NW 5.0 mph8.0 kmh 29.91 in1012.9 mb 0.00 in0.0 mm 0.00 in0.0 mm 0.00 in0.0 mm
05:32 AM 34.1°F1.2°C 25.0°F-3.9°C 69% 3.1 mph NW5.0 kmh NW 5.0 mph8.0 kmh 29.91 in1012.9 mb 0.00 in0.0 mm 0.00 in0.0 mm 0.00 in0.0 mm
05:37 AM 34.1°F1.2°C 25.0°F-3.9°C 69% 3.4 mph NW5.5 kmh NW 5.0 mph8.0 kmh 29.91 in1012.9 mb 0.00 in0.0 mm 0.00 in0.0 mm 0.00 in0.0 mm
05:42 AM 34.2°F1.2°C 25.1°F-3.8°C 69% 3.2 mph NW5.1 kmh NW 5.0 mph8.0 kmh 29.94 in1013.9 mb 0.00 in0.0 mm 0.00 in0.0 mm 0.00 in0.0 mm
05:47 AM 34.4°F1.3°C 25.3°F-3.7°C 69% 4.1 mph NW6.6 kmh NW 5.0 mph8.0 kmh 29.94 in1013.9 mb 0.00 in0.0 mm 0.00 in0.0 mm 0.00 in0.0 mm
05:52 AM 34.8°F1.6°C 25.3°F-3.7°C 68% 4.2 mph NW6.8 kmh NW 6.2 mph10.0 kmh 29.94 in1013.9 mb 0.00 in0.0 mm 0.00 in0.0 mm 0.00 in0.0 mm
05:57 AM 34.6°F1.4°C 25.1°F-3.8°C 68% 3.9 mph NNW6.3 kmh NNW 6.2 mph10.0 kmh 29.97 in1014.9 mb 0.00 in0.0 mm 0.00 in0.0 mm 0.00 in0.0 mm
06:02 AM 34.8°F1.6°C 25.3°F-3.7°C 68% 3.8 mph NW6.1 kmh NW 5.0 mph8.0 kmh 29.97 in1014.9 mb 0.00 in0.0 mm 0.00 in0.0 mm 0.00 in0.0 mm
06:07 AM 34.8°F1.6°C 25.3°F-3.7°C 68% 4.2 mph NNW6.8 kmh NNW 5.4 mph8.7 kmh 29.97 in1014.9 mb 0.00 in0.0 mm 0.00 in0.0 mm 0.00 in0.0 mm
06:13 AM 34.8°F1.6°C 25.0°F-3.9°C 67% 3.6 mph NNW5.8 kmh NNW 5.4 mph8.7 kmh 29.97 in1014.9 mb 0.00 in0.0 mm 0.00 in0.0 mm 0.00 in0.0 mm
06:18 AM 35.0°F1.7°C 25.2°F-3.8°C 67% 3.7 mph NNW6.0 kmh NNW 5.4 mph8.7 kmh 29.97 in1014.9 mb 0.00 in0.0 mm 0.00 in0.0 mm 0.00 in0.0 mm
06:23 AM 35.1°F1.7°C 25.3°F-3.7°C 67% 3.2 mph NW5.1 kmh NW 5.0 mph8.0 kmh 29.97 in1014.9 mb 0.00 in0.0 mm 0.00 in0.0 mm 0.00 in0.0 mm
06:28 AM 35.1°F1.7°C 25.6°F-3.6°C 68% 2.8 mph NW4.5 kmh NW 4.4 mph7.1 kmh 29.94 in1013.9 mb 0.00 in0.0 mm 0.00 in0.0 mm 0.00 in0.0 mm
06:33 AM 35.1°F1.7°C 25.6°F-3.6°C 68% 2.8 mph NW4.5 kmh NW 4.4 mph7.1 kmh 29.94 in1013.9 mb 0.00 in0.0 mm 0.00 in0.0 mm 0.00 in0.0 mm
06:38 AM 35.0°F1.7°C 25.5°F-3.6°C 68% 2.5 mph NW4.0 kmh NW 4.4 mph7.1 kmh 29.94 in1013.9 mb 0.00 in0.0 mm 0.00 in0.0 mm 0.00 in0.0 mm
06:43 AM 34.8°F1.6°C 25.3°F-3.7°C 68% 2.7 mph NW4.3 kmh NW 4.0 mph6.4 kmh 29.94 in1013.9 mb 0.00 in0.0 mm 0.00 in0.0 mm 0.00 in0.0 mm
06:48 AM 34.2°F1.2°C 25.5°F-3.6°C 70% 3.2 mph SW5.1 kmh SW 4.0 mph6.4 kmh 29.94 in1013.9 mb 0.00 in0.0 mm 0.00 in0.0 mm 0.00 in0.0 mm
06:53 AM 33.5°F0.8°C 26.1°F-3.3°C 74% 3.0 mph SSE4.8 kmh SSE 4.0 mph6.4 kmh 29.94 in1013.9 mb 0.00 in0.0 mm 0.00 in0.0 mm 0.00 in0.0 mm
06:58 AM 33.0°F0.6°C 25.9°F-3.4°C 75% 3.8 mph SSE6.1 kmh SSE 4.4 mph7.1 kmh 29.97 in1014.9 mb 0.00 in0.0 mm 0.00 in0.0 mm 0.00 in0.0 mm
07:03 AM 33.0°F0.6°C 25.3°F-3.7°C 73% 2.5 mph SSE4.0 kmh SSE 4.4 mph7.1 kmh 29.97 in1014.9 mb 0.00 in0.0 mm 0.00 in0.0 mm 0.00 in0.0 mm
07:08 AM 32.6°F0.3°C 25.2°F-3.8°C 74% 2.5 mph SSE4.0 kmh SSE 3.2 mph5.1 kmh 29.97 in1014.9 mb 0.00 in0.0 mm 0.00 in0.0 mm 0.00 in0.0 mm
07:14 AM 32.1°F0.1°C 25.4°F-3.7°C 76% Calm Calm 3.2 mph5.1 kmh 29.97 in1014.9 mb 0.00 in0.0 mm 0.00 in0.0 mm 0.00 in0.0 mm
07:19 AM 31.7°F-0.2°C 25.6°F-3.6°C 78% Calm Calm 2.2 mph3.5 kmh 29.97 in1014.9 mb 0.00 in0.0 mm 0.00 in0.0 mm 0.00 in0.0 mm
07:24 AM 31.5°F-0.3°C 25.4°F-3.7°C 78% 2.2 mph NNE3.5 kmh NNE 3.2 mph5.1 kmh 29.97 in1014.9 mb 0.00 in0.0 mm 0.00 in0.0 mm 0.00 in0.0 mm
07:29 AM 31.5°F-0.3°C 25.1°F-3.8°C 77% 2.2 mph S3.5 kmh S 3.2 mph5.1 kmh 30.00 in1015.9 mb 0.00 in0.0 mm 0.00 in0.0 mm 0.00 in0.0 mm
07:34 AM 31.4°F-0.3°C 25.9°F-3.4°C 80% 2.8 mph S4.5 kmh S 3.2 mph5.1 kmh 30.00 in1015.9 mb 0.00 in0.0 mm 0.00 in0.0 mm 0.00 in0.0 mm
07:39 AM 31.2°F-0.4°C 27.4°F-2.6°C 86% 4.2 mph S6.8 kmh S 5.0 mph8.0 kmh 30.00 in1015.9 mb 0.00 in0.0 mm 0.00 in0.0 mm 0.00 in0.0 mm
07:44 AM 31.0°F-0.6°C 26.7°F-2.9°C 84% 3.6 mph SSE5.8 kmh SSE 5.0 mph8.0 kmh 30.00 in1015.9 mb 0.00 in0.0 mm 0.00 in0.0 mm 0.00 in0.0 mm
07:49 AM 31.0°F-0.6°C 26.4°F-3.1°C 83% 2.0 mph SSE3.2 kmh SSE 4.4 mph7.1 kmh 30.00 in1015.9 mb 0.00 in0.0 mm 0.00 in0.0 mm 0.00 in0.0 mm
07:54 AM 31.0°F-0.6°C 26.4°F-3.1°C 83% Calm Calm 4.4 mph7.1 kmh 30.00 in1015.9 mb 0.00 in0.0 mm 0.00 in0.0 mm 0.00 in0.0 mm
07:59 AM 31.4°F-0.3°C 27.1°F-2.7°C 84% 3.6 mph 5.8 kmh 4.4 mph7.1 kmh 30.00 in1015.9 mb 0.00 in0.0 mm 0.00 in0.0 mm 0.00 in0.0 mm
08:04 AM 31.7°F-0.2°C 27.1°F-2.7°C 83% 3.5 mph 5.6 kmh 5.0 mph8.0 kmh 30.00 in1015.9 mb 0.00 in0.0 mm 0.00 in0.0 mm 0.00 in0.0 mm
08:09 AM 32.4°F0.2°C 27.5°F-2.5°C 82% 6.2 mph NNE10.0 kmh NNE 7.6 mph12.2 kmh 30.00 in1015.9 mb 0.00 in0.0 mm 0.00 in0.0 mm 0.00 in0.0 mm
08:15 AM 33.0°F0.6°C 27.5°F-2.5°C 80% 4.2 mph N6.8 kmh N 7.6 mph12.2 kmh 30.03 in1016.9 mb 0.00 in0.0 mm 0.00 in0.0 mm 0.00 in0.0 mm
08:20 AM 33.5°F0.8°C 27.7°F-2.4°C 79% 4.2 mph WNW6.8 kmh WNW 7.2 mph11.6 kmh 30.03 in1016.9 mb 0.00 in0.0 mm 0.00 in0.0 mm 0.00 in0.0 mm
08:25 AM 34.4°F1.3°C 27.0°F-2.8°C 74% 4.5 mph W7.2 kmh W 7.2 mph11.6 kmh 30.03 in1016.9 mb 0.00 in0.0 mm 0.00 in0.0 mm 0.00 in0.0 mm
08:30 AM 35.1°F1.7°C 28.6°F-1.9°C 77% 2.8 mph S4.5 kmh S 5.4 mph8.7 kmh 30.03 in1016.9 mb 0.00 in0.0 mm 0.00 in0.0 mm 0.00 in0.0 mm
08:35 AM 36.2°F2.3°C 29.7°F-1.3°C 77% 2.8 mph S4.5 kmh S 5.0 mph8.0 kmh 30.03 in1016.9 mb 0.00 in0.0 mm 0.00 in0.0 mm 0.00 in0.0 mm
08:40 AM 37.8°F3.2°C 30.9°F-0.6°C 76% 2.8 mph SW4.5 kmh SW 4.4 mph7.1 kmh 30.06 in1017.9 mb 0.00 in0.0 mm 0.00 in0.0 mm 0.00 in0.0 mm
08:45 AM 38.7°F3.7°C 28.0°F-2.2°C 65% 4.8 mph W7.7 kmh W 5.4 mph8.7 kmh 30.06 in1017.9 mb 0.00 in0.0 mm 0.00 in0.0 mm 0.00 in0.0 mm
08:50 AM 39.5°F4.2°C 28.3°F-2.1°C 64% 4.1 mph NW6.6 kmh NW 6.2 mph10.0 kmh 30.06 in1017.9 mb 0.00 in0.0 mm 0.00 in0.0 mm 0.00 in0.0 mm
08:55 AM 40.5°F4.7°C 28.1°F-2.2°C 61% 4.0 mph NW6.4 kmh NW 6.2 mph10.0 kmh 30.00 in1015.9 mb 0.00 in0.0 mm 0.00 in0.0 mm 0.00 in0.0 mm
09:00 AM 41.1°F5.1°C 27.0°F-2.8°C 57% 4.1 mph NW6.6 kmh NW 5.8 mph9.3 kmh 30.00 in1015.9 mb 0.00 in0.0 mm 0.00 in0.0 mm 0.00 in0.0 mm
09:05 AM 40.2°F4.6°C 25.7°F-3.5°C 56% 3.6 mph NW5.8 kmh NW 6.8 mph10.9 kmh 30.00 in1015.9 mb 0.00 in0.0 mm 0.00 in0.0 mm 0.00 in0.0 mm
09:10 AM 39.3°F4.1°C 25.3°F-3.7°C 57% 2.9 mph WSW4.7 kmh WSW 6.8 mph10.9 kmh 30.00 in1015.9 mb 0.00 in0.0 mm 0.00 in0.0 mm 0.00 in0.0 mm
09:15 AM 38.6°F3.7°C 24.7°F-4.1°C 57% 2.5 mph ESE4.0 kmh ESE 5.8 mph9.3 kmh 30.00 in1015.9 mb 0.00 in0.0 mm 0.00 in0.0 mm 0.00 in0.0 mm
09:20 AM 38.9°F3.8°C 25.8°F-3.4°C 59% Calm Calm 5.8 mph9.3 kmh 30.00 in1015.9 mb 0.00 in0.0 mm 0.00 in0.0 mm 0.00 in0.0 mm
09:26 AM 39.8°F4.3°C 26.2°F-3.2°C 58% 4.8 mph N7.7 kmh N 6.2 mph10.0 kmh 30.03 in1016.9 mb 0.00 in0.0 mm 0.00 in0.0 mm 0.00 in0.0 mm
09:31 AM 40.2°F4.6°C 23.9°F-4.5°C 52% 10.7 mph N17.2 kmh N 15.2 mph24.5 kmh 30.03 in1016.9 mb 0.00 in0.0 mm 0.00 in0.0 mm 0.00 in0.0 mm
09:37 AM 40.0°F4.4°C 23.2°F-4.9°C 51% 15.5 mph NNE24.9 kmh NNE 20.2 mph32.5 kmh 30.03 in1016.9 mb 0.00 in0.0 mm 0.00 in0.0 mm 0.00 in0.0 mm
09:42 AM 40.7°F4.8°C 23.9°F-4.5°C 51% 9.1 mph NNE14.6 kmh NNE 20.2 mph32.5 kmh 30.00 in1015.9 mb 0.00 in0.0 mm 0.00 in0.0 mm 0.00 in0.0 mm
09:47 AM 41.3°F5.2°C 23.9°F-4.5°C 50% 8.7 mph N14.0 kmh N 17.4 mph28.0 kmh 30.00 in1015.9 mb 0.00 in0.0 mm 0.00 in0.0 mm 0.00 in0.0 mm
09:52 AM 41.4°F5.2°C 23.5°F-4.7°C 49% 6.3 mph NNW10.1 kmh NNW 17.0 mph27.4 kmh 30.00 in1015.9 mb 0.00 in0.0 mm 0.00 in0.0 mm 0.00 in0.0 mm
09:57 AM 41.4°F5.2°C 23.0°F-5.0°C 48% 7.5 mph NNW12.1 kmh NNW 13.0 mph20.9 kmh 30.00 in1015.9 mb 0.00 in0.0 mm 0.00 in0.0 mm 0.00 in0.0 mm
10:02 AM 40.7°F4.8°C 22.4°F-5.3°C 48% 7.7 mph N12.4 kmh N 14.4 mph23.2 kmh 30.00 in1015.9 mb 0.00 in0.0 mm 0.00 in0.0 mm 0.00 in0.0 mm
10:08 AM 40.9°F4.9°C 22.6°F-5.2°C 48% 7.2 mph NW11.6 kmh NW 14.8 mph23.8 kmh 30.00 in1015.9 mb 0.00 in0.0 mm 0.00 in0.0 mm 0.00 in0.0 mm
10:13 AM 42.0°F5.6°C 23.1°F-4.9°C 47% 7.0 mph N11.3 kmh N 14.8 mph23.8 kmh 30.00 in1015.9 mb 0.00 in0.0 mm 0.00 in0.0 mm 0.00 in0.0 mm
10:18 AM 42.9°F6.1°C 23.4°F-4.8°C 46% 6.1 mph NW9.8 kmh NW 14.8 mph23.8 kmh 30.00 in1015.9 mb 0.00 in0.0 mm 0.00 in0.0 mm 0.00 in0.0 mm
10:23 AM 43.4°F6.3°C 24.9°F-3.9°C 48% 4.7 mph NW7.6 kmh NW 8.6 mph13.8 kmh 30.00 in1015.9 mb 0.00 in0.0 mm 0.00 in0.0 mm 0.00 in0.0 mm
10:28 AM 44.3°F6.8°C 25.2°F-3.8°C 47% 7.8 mph NNW12.6 kmh NNW 15.2 mph24.5 kmh 30.00 in1015.9 mb 0.00 in0.0 mm 0.00 in0.0 mm 0.00 in0.0 mm
10:33 AM 45.0°F7.2°C 24.2°F-4.3°C 44% 8.7 mph N14.0 kmh N 17.4 mph28.0 kmh 30.00 in1015.9 mb 0.00 in0.0 mm 0.00 in0.0 mm 0.00 in0.0 mm
10:39 AM 45.2°F7.3°C 24.4°F-4.2°C 44% 7.5 mph NW12.1 kmh NW 17.4 mph28.0 kmh 30.00 in1015.9 mb 0.00 in0.0 mm 0.00 in0.0 mm 0.00 in0.0 mm
10:44 AM 45.0°F7.2°C 23.0°F-5.0°C 42% 9.1 mph WNW14.6 kmh WNW 17.0 mph27.4 kmh 30.03 in1016.9 mb 0.00 in0.0 mm 0.00 in0.0 mm 0.00 in0.0 mm
10:50 AM 45.2°F7.3°C 23.2°F-4.9°C 42% 9.9 mph WSW15.9 kmh WSW 14.4 mph23.2 kmh 30.03 in1016.9 mb 0.00 in0.0 mm 0.00 in0.0 mm 0.00 in0.0 mm
10:55 AM 44.7°F7.1°C 23.3°F-4.8°C 43% 8.4 mph N13.5 kmh N 12.6 mph20.3 kmh 30.03 in1016.9 mb 0.00 in0.0 mm 0.00 in0.0 mm 0.00 in0.0 mm
11:00 AM 45.6°F7.6°C 24.2°F-4.3°C 43% 10.0 mph N16.1 kmh N 20.6 mph33.2 kmh 30.03 in1016.9 mb 0.00 in0.0 mm 0.00 in0.0 mm 0.00 in0.0 mm
11:05 AM 46.1°F7.8°C 23.4°F-4.8°C 41% 10.5 mph W16.9 kmh W 20.6 mph33.2 kmh 30.03 in1016.9 mb 0.00 in0.0 mm 0.00 in0.0 mm 0.00 in0.0 mm
11:10 AM 45.6°F7.6°C 23.6°F-4.7°C 42% 7.0 mph WNW11.3 kmh WNW 13.0 mph20.9 kmh 30.03 in1016.9 mb 0.00 in0.0 mm 0.00 in0.0 mm 0.00 in0.0 mm
11:15 AM 46.1°F7.8°C 22.8°F-5.1°C 40% 7.9 mph NW12.7 kmh NW 12.0 mph19.3 kmh 30.03 in1016.9 mb 0.00 in0.0 mm 0.00 in0.0 mm 0.00 in0.0 mm
11:20 AM 47.0°F8.3°C 24.3°F-4.3°C 41% 5.6 mph WSW9.0 kmh WSW 12.0 mph19.3 kmh 30.03 in1016.9 mb 0.00 in0.0 mm 0.00 in0.0 mm 0.00 in0.0 mm
11:25 AM 47.7°F8.7°C 25.5°F-3.6°C 42% 4.9 mph NW7.9 kmh NW 8.6 mph13.8 kmh 30.03 in1016.9 mb 0.00 in0.0 mm 0.00 in0.0 mm 0.00 in0.0 mm
11:30 AM 48.6°F9.2°C 26.3°F-3.2°C 42% 4.5 mph NNE7.2 kmh NNE 11.2 mph18.0 kmh 30.03 in1016.9 mb 0.00 in0.0 mm 0.00 in0.0 mm 0.00 in0.0 mm
11:35 AM 48.1°F8.9°C 25.2°F-3.8°C 41% 6.8 mph W10.9 kmh W 11.2 mph18.0 kmh 30.03 in1016.9 mb 0.00 in0.0 mm 0.00 in0.0 mm 0.00 in0.0 mm
11:40 AM 48.1°F8.9°C 24.6°F-4.1°C 40% 6.4 mph W10.3 kmh W 10.8 mph17.4 kmh 30.03 in1016.9 mb 0.04 in1.0 mm 0.48 in12.2 mm 0.04 in1.0 mm
11:45 AM 47.2°F8.4°C 23.8°F-4.6°C 40% 11.1 mph W17.9 kmh W 13.0 mph20.9 kmh 30.03 in1016.9 mb 0.04 in1.0 mm 0.00 in0.0 mm 0.04 in1.0 mm
11:50 AM 47.2°F8.4°C 23.8°F-4.6°C 40% 11.5 mph WSW18.5 kmh WSW 16.2 mph26.1 kmh 30.03 in1016.9 mb 0.04 in1.0 mm 0.00 in0.0 mm 0.04 in1.0 mm
11:55 AM 47.2°F8.4°C 23.8°F-4.6°C 40% 8.5 mph WNW13.7 kmh WNW 16.2 mph26.1 kmh 30.03 in1016.9 mb 0.00 in0.0 mm 0.00 in0.0 mm 0.04 in1.0 mm
12:01 PM 47.7°F8.7°C 24.3°F-4.3°C 40% 5.2 mph WSW8.4 kmh WSW 13.0 mph20.9 kmh 30.03 in1016.9 mb 0.00 in0.0 mm 0.00 in0.0 mm 0.04 in1.0 mm
12:06 PM 48.6°F9.2°C 25.7°F-3.5°C 41% 5.8 mph WNW9.3 kmh WNW 11.6 mph18.7 kmh 30.03 in1016.9 mb 0.00 in0.0 mm 0.00 in0.0 mm 0.04 in1.0 mm
12:11 PM 48.5°F9.2°C 24.4°F-4.2°C 39% 7.6 mph NW12.2 kmh NW 14.8 mph23.8 kmh 30.03 in1016.9 mb 0.00 in0.0 mm 0.00 in0.0 mm 0.04 in1.0 mm
12:16 PM 48.6°F9.2°C 25.1°F-3.8°C 40% 7.8 mph NNW12.6 kmh NNW 14.8 mph23.8 kmh 30.03 in1016.9 mb 0.00 in0.0 mm 0.00 in0.0 mm 0.04 in1.0 mm
12:21 PM 47.0°F8.3°C 23.0°F-5.0°C 39% 9.9 mph WNW15.9 kmh WNW 12.6 mph20.3 kmh 30.03 in1016.9 mb 0.00 in0.0 mm 0.00 in0.0 mm 0.04 in1.0 mm
12:26 PM 46.7°F8.2°C 22.1°F-5.5°C 38% 11.8 mph W19.0 kmh W 17.0 mph27.4 kmh 30.03 in1016.9 mb 0.00 in0.0 mm 0.00 in0.0 mm 0.04 in1.0 mm
12:31 PM 47.4°F8.6°C 23.4°F-4.8°C 39% 7.8 mph W12.6 kmh W 17.0 mph27.4 kmh 30.03 in1016.9 mb 0.00 in0.0 mm 0.00 in0.0 mm 0.04 in1.0 mm
12:36 PM 47.7°F8.7°C 23.7°F-4.6°C 39% 10.7 mph W17.2 kmh W 15.2 mph24.5 kmh 30.03 in1016.9 mb 0.00 in0.0 mm 0.00 in0.0 mm 0.04 in1.0 mm
12:41 PM 47.6°F8.7°C 23.6°F-4.7°C 39% 6.2 mph W10.0 kmh W 15.2 mph24.5 kmh 30.00 in1015.9 mb 0.00 in0.0 mm 0.00 in0.0 mm 0.04 in1.0 mm
12:46 PM 47.2°F8.4°C 23.2°F-4.9°C 39% 10.4 mph W16.7 kmh W 14.8 mph23.8 kmh 30.00 in1015.9 mb 0.00 in0.0 mm 0.00 in0.0 mm 0.04 in1.0 mm
12:51 PM 48.1°F8.9°C 24.0°F-4.4°C 39% 7.1 mph NNW11.4 kmh NNW 15.2 mph24.5 kmh 30.00 in1015.9 mb 0.00 in0.0 mm 0.00 in0.0 mm 0.04 in1.0 mm
12:56 PM 49.9°F9.9°C 26.3°F-3.2°C 40% 6.5 mph NNW10.5 kmh NNW 15.2 mph24.5 kmh 30.00 in1015.9 mb 0.00 in0.0 mm 0.00 in0.0 mm 0.04 in1.0 mm
01:01 PM 50.8°F10.4°C 26.4°F-3.1°C 39% 6.8 mph N10.9 kmh N 12.0 mph19.3 kmh 30.00 in1015.9 mb 0.00 in0.0 mm 0.00 in0.0 mm 0.04 in1.0 mm
01:06 PM 50.4°F10.2°C 26.1°F-3.3°C 39% 10.1 mph N16.3 kmh N 17.4 mph28.0 kmh 30.00 in1015.9 mb 0.00 in0.0 mm 0.00 in0.0 mm 0.04 in1.0 mm
01:13 PM 50.4°F10.2°C 26.1°F-3.3°C 39% 7.4 mph NW11.9 kmh NW 21.0 mph33.8 kmh 29.97 in1014.9 mb 0.00 in0.0 mm 0.00 in0.0 mm 0.04 in1.0 mm
01:18 PM 51.0°F10.6°C 26.0°F-3.3°C 38% 7.6 mph WSW12.2 kmh WSW 21.0 mph33.8 kmh 29.97 in1014.9 mb 0.00 in0.0 mm 0.00 in0.0 mm 0.04 in1.0 mm
01:24 PM 51.0°F10.6°C 26.0°F-3.3°C 38% 7.5 mph NW12.1 kmh NW 13.0 mph20.9 kmh 29.97 in1014.9 mb 0.00 in0.0 mm 0.00 in0.0 mm 0.04 in1.0 mm
01:29 PM 51.2°F10.7°C 26.2°F-3.2°C 38% 8.9 mph N14.3 kmh N 22.4 mph36.0 kmh 29.97 in1014.9 mb 0.00 in0.0 mm 0.00 in0.0 mm 0.04 in1.0 mm
01:35 PM 51.3°F10.7°C 26.2°F-3.2°C 38% 8.6 mph NW13.8 kmh NW 22.4 mph36.0 kmh 29.97 in1014.9 mb 0.00 in0.0 mm 0.00 in0.0 mm 0.04 in1.0 mm
01:40 PM 50.4°F10.2°C 24.8°F-4.0°C 37% 9.7 mph W15.6 kmh W 13.0 mph20.9 kmh 29.94 in1013.9 mb 0.00 in0.0 mm 0.00 in0.0 mm 0.04 in1.0 mm
01:45 PM 51.0°F10.6°C 25.3°F-3.7°C 37% 9.7 mph WNW15.6 kmh WNW 13.0 mph20.9 kmh 29.94 in1013.9 mb 0.00 in0.0 mm 0.00 in0.0 mm 0.04 in1.0 mm
01:50 PM 51.2°F10.7°C 25.5°F-3.6°C 37% 6.4 mph NW10.3 kmh NW 14.8 mph23.8 kmh 29.94 in1013.9 mb 0.00 in0.0 mm 0.00 in0.0 mm 0.04 in1.0 mm
01:55 PM 52.6°F11.4°C 26.1°F-3.3°C 36% 5.5 mph WNW8.9 kmh WNW 14.8 mph23.8 kmh 29.97 in1014.9 mb 0.00 in0.0 mm 0.00 in0.0 mm 0.04 in1.0 mm
02:00 PM 52.4°F11.3°C 26.6°F-3.0°C 37% 9.3 mph W15.0 kmh W 11.6 mph18.7 kmh 29.97 in1014.9 mb 0.00 in0.0 mm 0.00 in0.0 mm 0.04 in1.0 mm
02:05 PM 52.4°F11.3°C 26.6°F-3.0°C 37% 6.9 mph W11.1 kmh W 14.8 mph23.8 kmh 29.97 in1014.9 mb 0.00 in0.0 mm 0.00 in0.0 mm 0.04 in1.0 mm
02:10 PM 53.1°F11.7°C 27.2°F-2.7°C 37% 7.5 mph W12.1 kmh W 14.8 mph23.8 kmh 29.97 in1014.9 mb 0.00 in0.0 mm 0.00 in0.0 mm 0.04 in1.0 mm
02:15 PM 53.7°F12.1°C 27.1°F-2.7°C 36% 6.8 mph W10.9 kmh W 13.0 mph20.9 kmh 29.97 in1014.9 mb 0.00 in0.0 mm 0.00 in0.0 mm 0.04 in1.0 mm
02:20 PM 52.8°F11.6°C 26.3°F-3.2°C 36% 8.1 mph WNW13.0 kmh WNW 14.8 mph23.8 kmh 29.97 in1014.9 mb 0.00 in0.0 mm 0.00 in0.0 mm 0.04 in1.0 mm
02:25 PM 53.1°F11.7°C 27.2°F-2.7°C 37% 7.4 mph SW11.9 kmh SW 14.8 mph23.8 kmh 29.97 in1014.9 mb 0.00 in0.0 mm 0.00 in0.0 mm 0.04 in1.0 mm
02:30 PM 53.5°F11.9°C 26.9°F-2.8°C 36% 6.9 mph NNE11.1 kmh NNE 22.4 mph36.0 kmh 29.97 in1014.9 mb 0.00 in0.0 mm 0.00 in0.0 mm 0.04 in1.0 mm
02:35 PM 54.6°F12.6°C 27.9°F-2.3°C 36% 6.2 mph NNE10.0 kmh NNE 25.0 mph40.2 kmh 29.97 in1014.9 mb 0.00 in0.0 mm 0.00 in0.0 mm 0.04 in1.0 mm
02:40 PM 54.4°F12.4°C 27.7°F-2.4°C 36% 7.5 mph N12.1 kmh N 25.0 mph40.2 kmh 29.94 in1013.9 mb 0.00 in0.0 mm 0.00 in0.0 mm 0.04 in1.0 mm
02:45 PM 54.2°F12.3°C 26.1°F-3.3°C 34% 6.8 mph WNW10.9 kmh WNW 14.4 mph23.2 kmh 29.94 in1013.9 mb 0.00 in0.0 mm 0.00 in0.0 mm 0.04 in1.0 mm
02:50 PM 54.2°F12.3°C 27.5°F-2.5°C 36% 7.5 mph W12.1 kmh W 10.8 mph17.4 kmh 29.94 in1013.9 mb 0.00 in0.0 mm 0.00 in0.0 mm 0.04 in1.0 mm
02:55 PM 54.6°F12.6°C 27.2°F-2.7°C 35% 7.9 mph NW12.7 kmh NW 11.2 mph18.0 kmh 29.94 in1013.9 mb 0.00 in0.0 mm 0.00 in0.0 mm 0.04 in1.0 mm
03:00 PM 55.3°F12.9°C 27.1°F-2.7°C 34% 7.7 mph NW12.4 kmh NW 11.6 mph18.7 kmh 29.94 in1013.9 mb 0.00 in0.0 mm 0.00 in0.0 mm 0.04 in1.0 mm
03:05 PM 54.6°F12.6°C 26.5°F-3.1°C 34% 7.7 mph WNW12.4 kmh WNW 12.0 mph19.3 kmh 29.94 in1013.9 mb 0.00 in0.0 mm 0.00 in0.0 mm 0.04 in1.0 mm
03:10 PM 54.4°F12.4°C 24.8°F-4.0°C 32% 7.1 mph WNW11.4 kmh WNW 12.0 mph19.3 kmh 29.91 in1012.9 mb 0.00 in0.0 mm 0.00 in0.0 mm 0.04 in1.0 mm
03:15 PM 54.0°F12.2°C 25.2°F-3.8°C 33% 7.5 mph N12.1 kmh N 12.0 mph19.3 kmh 29.91 in1012.9 mb 0.00 in0.0 mm 0.00 in0.0 mm 0.04 in1.0 mm
03:20 PM 54.4°F12.4°C 25.6°F-3.6°C 33% 6.7 mph WNW10.8 kmh WNW 12.0 mph19.3 kmh 29.91 in1012.9 mb 0.00 in0.0 mm 0.00 in0.0 mm 0.04 in1.0 mm
03:26 PM 54.2°F12.3°C 26.8°F-2.9°C 35% 4.2 mph NE6.8 kmh NE 17.0 mph27.4 kmh 29.91 in1012.9 mb 0.00 in0.0 mm 0.00 in0.0 mm 0.04 in1.0 mm
03:31 PM 54.9°F12.7°C 27.4°F-2.6°C 35% 5.4 mph NW8.7 kmh NW 17.0 mph27.4 kmh 29.91 in1012.9 mb 0.00 in0.0 mm 0.00 in0.0 mm 0.04 in1.0 mm
03:37 PM 54.6°F12.6°C 27.2°F-2.7°C 35% 7.3 mph WSW11.7 kmh WSW 14.4 mph23.2 kmh 29.91 in1012.9 mb 0.00 in0.0 mm 0.00 in0.0 mm 0.04 in1.0 mm
03:42 PM 53.9°F12.2°C 26.5°F-3.1°C 35% 8.9 mph W14.3 kmh W 15.2 mph24.5 kmh 29.91 in1012.9 mb 0.00 in0.0 mm 0.00 in0.0 mm 0.04 in1.0 mm
03:47 PM 53.5°F11.9°C 25.5°F-3.6°C 34% 8.0 mph NNW12.9 kmh NNW 15.2 mph24.5 kmh 29.91 in1012.9 mb 0.00 in0.0 mm 0.00 in0.0 mm 0.04 in1.0 mm
03:52 PM 53.5°F11.9°C 24.0°F-4.4°C 32% 7.4 mph NW11.9 kmh NW 13.0 mph20.9 kmh 29.91 in1012.9 mb 0.00 in0.0 mm 0.00 in0.0 mm 0.04 in1.0 mm
03:57 PM 53.7°F12.1°C 24.9°F-3.9°C 33% 8.1 mph WNW13.0 kmh WNW 13.0 mph20.9 kmh 29.88 in1011.9 mb 0.00 in0.0 mm 0.00 in0.0 mm 0.04 in1.0 mm
04:02 PM 53.1°F11.7°C 22.9°F-5.1°C 31% 11.1 mph WNW17.9 kmh WNW 15.2 mph24.5 kmh 29.88 in1011.9 mb 0.00 in0.0 mm 0.00 in0.0 mm 0.04 in1.0 mm
04:08 PM 52.1°F11.2°C 21.3°F-5.9°C 30% 12.5 mph W20.1 kmh W 15.6 mph25.1 kmh 29.88 in1011.9 mb 0.00 in0.0 mm 0.00 in0.0 mm 0.04 in1.0 mm
04:13 PM 52.1°F11.2°C 22.1°F-5.5°C 31% 9.9 mph W15.9 kmh W 15.6 mph25.1 kmh 29.91 in1012.9 mb 0.00 in0.0 mm 0.00 in0.0 mm 0.04 in1.0 mm
04:18 PM 52.1°F11.2°C 22.1°F-5.5°C 31% 7.9 mph NW12.7 kmh NW 14.4 mph23.2 kmh 29.91 in1012.9 mb 0.00 in0.0 mm 0.00 in0.0 mm 0.04 in1.0 mm
04:23 PM 52.2°F11.2°C 22.9°F-5.1°C 32% 8.3 mph W13.4 kmh W 14.4 mph23.2 kmh 29.91 in1012.9 mb 0.00 in0.0 mm 0.00 in0.0 mm 0.04 in1.0 mm
04:29 PM 52.8°F11.6°C 22.7°F-5.2°C 31% 10.1 mph NW16.3 kmh NW 17.4 mph28.0 kmh 29.91 in1012.9 mb 0.00 in0.0 mm 0.00 in0.0 mm 0.04 in1.0 mm
04:34 PM 52.6°F11.4°C 23.2°F-4.9°C 32% 7.4 mph NNW11.9 kmh NNW 17.4 mph28.0 kmh 29.91 in1012.9 mb 0.00 in0.0 mm 0.00 in0.0 mm 0.04 in1.0 mm
04:39 PM 52.4°F11.3°C 23.1°F-4.9°C 32% 10.0 mph WNW16.1 kmh WNW 17.4 mph28.0 kmh 29.91 in1012.9 mb 0.00 in0.0 mm 0.00 in0.0 mm 0.04 in1.0 mm
04:44 PM 52.2°F11.2°C 23.6°F-4.7°C 33% 7.0 mph NW11.3 kmh NW 12.6 mph20.3 kmh 29.91 in1012.9 mb 0.00 in0.0 mm 0.00 in0.0 mm 0.04 in1.0 mm
04:49 PM 52.4°F11.3°C 23.8°F-4.6°C 33% 7.2 mph W11.6 kmh W 12.6 mph20.3 kmh 29.91 in1012.9 mb 0.00 in0.0 mm 0.00 in0.0 mm 0.04 in1.0 mm
04:54 PM 52.1°F11.2°C 23.5°F-4.7°C 33% 7.2 mph W11.6 kmh W 11.2 mph18.0 kmh 29.91 in1012.9 mb 0.00 in0.0 mm 0.00 in0.0 mm 0.04 in1.0 mm
05:00 PM 52.6°F11.4°C 24.7°F-4.1°C 34% 6.1 mph WNW9.8 kmh WNW 10.8 mph17.4 kmh 29.91 in1012.9 mb 0.00 in0.0 mm 0.00 in0.0 mm 0.04 in1.0 mm
05:05 PM 52.4°F11.3°C 23.8°F-4.6°C 33% 9.6 mph W15.4 kmh W 12.6 mph20.3 kmh 29.91 in1012.9 mb 0.00 in0.0 mm 0.00 in0.0 mm 0.04 in1.0 mm
05:10 PM 52.8°F11.6°C 24.2°F-4.3°C 33% 8.9 mph W14.3 kmh W 12.6 mph20.3 kmh 29.91 in1012.9 mb 0.00 in0.0 mm 0.00 in0.0 mm 0.04 in1.0 mm
05:15 PM 52.6°F11.4°C 24.7°F-4.1°C 34% 5.1 mph NW8.2 kmh NW 12.0 mph19.3 kmh 29.91 in1012.9 mb 0.00 in0.0 mm 0.00 in0.0 mm 0.04 in1.0 mm
05:20 PM 53.0°F11.7°C 24.3°F-4.3°C 33% 10.8 mph W17.4 kmh W 14.4 mph23.2 kmh 29.91 in1012.9 mb 0.00 in0.0 mm 0.00 in0.0 mm 0.04 in1.0 mm
05:25 PM 51.9°F11.1°C 23.4°F-4.8°C 33% 6.1 mph WNW9.8 kmh WNW 17.4 mph28.0 kmh 29.91 in1012.9 mb 0.00 in0.0 mm 0.00 in0.0 mm 0.04 in1.0 mm
05:30 PM 51.9°F11.1°C 23.4°F-4.8°C 33% 8.1 mph WSW13.0 kmh WSW 17.4 mph28.0 kmh 29.91 in1012.9 mb 0.00 in0.0 mm 0.00 in0.0 mm 0.04 in1.0 mm
05:35 PM 51.7°F10.9°C 23.2°F-4.9°C 33% 6.0 mph NW9.7 kmh NW 11.2 mph18.0 kmh 29.91 in1012.9 mb 0.00 in0.0 mm 0.00 in0.0 mm 0.04 in1.0 mm
05:41 PM 51.9°F11.1°C 24.8°F-4.0°C 35% 5.4 mph N8.7 kmh N 9.8 mph15.8 kmh 29.91 in1012.9 mb 0.00 in0.0 mm 0.00 in0.0 mm 0.04 in1.0 mm
05:46 PM 51.7°F10.9°C 23.9°F-4.5°C 34% 5.5 mph WSW8.9 kmh WSW 8.0 mph12.9 kmh 29.91 in1012.9 mb 0.00 in0.0 mm 0.00 in0.0 mm 0.04 in1.0 mm
05:51 PM 51.3°F10.7°C 24.2°F-4.3°C 35% 4.7 mph NW7.6 kmh NW 7.6 mph12.2 kmh 29.91 in1012.9 mb 0.00 in0.0 mm 0.00 in0.0 mm 0.04 in1.0 mm
05:56 PM 51.0°F10.6°C 23.3°F-4.8°C 34% 6.8 mph WNW10.9 kmh WNW 12.0 mph19.3 kmh 29.88 in1011.9 mb 0.00 in0.0 mm 0.00 in0.0 mm 0.04 in1.0 mm
06:01 PM 50.4°F10.2°C 22.8°F-5.1°C 34% 8.5 mph WNW13.7 kmh WNW 12.0 mph19.3 kmh 29.88 in1011.9 mb 0.00 in0.0 mm 0.00 in0.0 mm 0.04 in1.0 mm
06:06 PM 50.3°F10.2°C 22.7°F-5.2°C 34% 7.9 mph WNW12.7 kmh WNW 11.6 mph18.7 kmh 29.88 in1011.9 mb 0.00 in0.0 mm 0.00 in0.0 mm 0.04 in1.0 mm
06:11 PM 50.1°F10.1°C 23.9°F-4.5°C 36% 4.5 mph WNW7.2 kmh WNW 11.6 mph18.7 kmh 29.91 in1012.9 mb 0.00 in0.0 mm 0.00 in0.0 mm 0.04 in1.0 mm
06:16 PM 49.9°F9.9°C 22.3°F-5.4°C 34% 6.9 mph W11.1 kmh W 8.6 mph13.8 kmh 29.91 in1012.9 mb 0.00 in0.0 mm 0.00 in0.0 mm 0.04 in1.0 mm
06:21 PM 49.4°F9.7°C 23.2°F-4.9°C 36% 5.5 mph NW8.9 kmh NW 12.6 mph20.3 kmh 29.91 in1012.9 mb 0.00 in0.0 mm 0.00 in0.0 mm 0.04 in1.0 mm
06:26 PM 48.8°F9.3°C 22.7°F-5.2°C 36% 5.4 mph NW8.7 kmh NW 12.6 mph20.3 kmh 29.91 in1012.9 mb 0.00 in0.0 mm 0.00 in0.0 mm 0.04 in1.0 mm
06:32 PM 48.5°F9.2°C 22.4°F-5.3°C 36% 4.6 mph N7.4 kmh N 9.8 mph15.8 kmh 29.91 in1012.9 mb 0.00 in0.0 mm 0.00 in0.0 mm 0.04 in1.0 mm
06:37 PM 48.3°F9.1°C 22.9°F-5.1°C 37% 4.2 mph N6.8 kmh N 9.8 mph15.8 kmh 29.91 in1012.9 mb 0.00 in0.0 mm 0.00 in0.0 mm 0.04 in1.0 mm
06:43 PM 47.9°F8.8°C 22.6°F-5.2°C 37% 5.4 mph NNW8.7 kmh NNW 9.4 mph15.1 kmh 29.91 in1012.9 mb 0.00 in0.0 mm 0.00 in0.0 mm 0.04 in1.0 mm
06:48 PM 47.6°F8.7°C 22.3°F-5.4°C 37% 15.3 mph N24.6 kmh N 21.0 mph33.8 kmh 29.91 in1012.9 mb 0.00 in0.0 mm 0.00 in0.0 mm 0.04 in1.0 mm
06:53 PM 47.2°F8.4°C 21.9°F-5.6°C 37% 17.8 mph N28.6 kmh N 23.8 mph38.3 kmh 29.91 in1012.9 mb 0.00 in0.0 mm 0.00 in0.0 mm 0.04 in1.0 mm
06:58 PM 46.8°F8.2°C 21.6°F-5.8°C 37% 14.9 mph N24.0 kmh N 23.8 mph38.3 kmh 29.91 in1012.9 mb 0.00 in0.0 mm 0.00 in0.0 mm 0.04 in1.0 mm
07:03 PM 46.7°F8.2°C 22.1°F-5.5°C 38% 10.0 mph N16.1 kmh N 20.6 mph33.2 kmh 29.91 in1012.9 mb 0.00 in0.0 mm 0.00 in0.0 mm 0.04 in1.0 mm
07:08 PM 46.3°F7.9°C 21.8°F-5.7°C 38% 9.8 mph N15.8 kmh N 17.4 mph28.0 kmh 29.91 in1012.9 mb 0.00 in0.0 mm 0.00 in0.0 mm 0.04 in1.0 mm
07:13 PM 45.9°F7.7°C 21.4°F-5.9°C 38% 9.4 mph NNE15.1 kmh NNE 17.0 mph27.4 kmh 29.88 in1011.9 mb 0.00 in0.0 mm 0.00 in0.0 mm 0.04 in1.0 mm
07:18 PM 45.8°F7.7°C 21.3°F-5.9°C 38% 10.8 mph N17.4 kmh N 14.8 mph23.8 kmh 29.88 in1011.9 mb 0.00 in0.0 mm 0.00 in0.0 mm 0.04 in1.0 mm
07:24 PM 45.2°F7.3°C 21.4°F-5.9°C 39% 17.2 mph 27.7 kmh 24.6 mph39.6 kmh 29.91 in1012.9 mb 0.00 in0.0 mm 0.00 in0.0 mm 0.04 in1.0 mm
07:29 PM 44.9°F7.2°C 21.1°F-6.1°C 39% 10.5 mph N16.9 kmh N 24.6 mph39.6 kmh 29.91 in1012.9 mb 0.00 in0.0 mm 0.00 in0.0 mm 0.04 in1.0 mm
07:34 PM 44.5°F6.9°C 20.8°F-6.2°C 39% 10.3 mph 16.6 kmh 24.6 mph39.6 kmh 29.91 in1012.9 mb 0.00 in0.0 mm 0.00 in0.0 mm 0.04 in1.0 mm
07:39 PM 44.0°F6.7°C 21.0°F-6.1°C 40% 11.2 mph N18.0 kmh N 20.2 mph32.5 kmh 29.91 in1012.9 mb 0.00 in0.0 mm 0.00 in0.0 mm 0.04 in1.0 mm
07:45 PM 43.6°F6.4°C 20.6°F-6.3°C 40% 8.3 mph NNW13.4 kmh NNW 20.2 mph32.5 kmh 29.91 in1012.9 mb 0.00 in0.0 mm 0.00 in0.0 mm 0.04 in1.0 mm
07:50 PM 43.2°F6.2°C 20.2°F-6.6°C 40% 8.0 mph N12.9 kmh N 17.0 mph27.4 kmh 29.91 in1012.9 mb 0.00 in0.0 mm 0.00 in0.0 mm 0.04 in1.0 mm
07:55 PM 42.9°F6.1°C 20.0°F-6.7°C 40% 8.3 mph NNE13.4 kmh NNE 14.8 mph23.8 kmh 29.94 in1013.9 mb 0.00 in0.0 mm 0.00 in0.0 mm 0.04 in1.0 mm
08:00 PM 42.7°F5.9°C 19.8°F-6.8°C 40% 8.9 mph N14.3 kmh N 14.8 mph23.8 kmh 29.94 in1013.9 mb 0.00 in0.0 mm 0.00 in0.0 mm 0.04 in1.0 mm
08:08 PM 42.2°F5.7°C 19.9°F-6.7°C 41% 8.8 mph N14.2 kmh N 15.2 mph24.5 kmh 29.94 in1013.9 mb 0.00 in0.0 mm 0.00 in0.0 mm 0.04 in1.0 mm
08:13 PM 42.0°F5.6°C 19.7°F-6.8°C 41% 8.5 mph N13.7 kmh N 13.0 mph20.9 kmh 29.94 in1013.9 mb 0.00 in0.0 mm 0.00 in0.0 mm 0.04 in1.0 mm
08:19 PM 42.0°F5.6°C 19.7°F-6.8°C 41% 10.7 mph N17.2 kmh N 17.8 mph28.6 kmh 29.94 in1013.9 mb 0.00 in0.0 mm 0.00 in0.0 mm 0.04 in1.0 mm
08:24 PM 41.6°F5.3°C 19.4°F-7.0°C 41% 5.6 mph N9.0 kmh N 17.8 mph28.6 kmh 29.94 in1013.9 mb 0.00 in0.0 mm 0.00 in0.0 mm 0.04 in1.0 mm
08:29 PM 41.4°F5.2°C 19.2°F-7.1°C 41% 4.8 mph N7.7 kmh N 17.0 mph27.4 kmh 29.94 in1013.9 mb 0.00 in0.0 mm 0.00 in0.0 mm 0.04 in1.0 mm
08:34 PM 41.3°F5.2°C 19.1°F-7.2°C 41% 7.9 mph N12.7 kmh N 13.0 mph20.9 kmh 29.94 in1013.9 mb 0.00 in0.0 mm 0.00 in0.0 mm 0.04 in1.0 mm
08:39 PM 40.9°F4.9°C 18.7°F-7.4°C 41% 4.2 mph N6.8 kmh N 11.6 mph18.7 kmh 29.94 in1013.9 mb 0.00 in0.0 mm 0.00 in0.0 mm 0.04 in1.0 mm
08:44 PM 40.5°F4.7°C 19.0°F-7.2°C 42% 4.1 mph NNW6.6 kmh NNW 9.4 mph15.1 kmh 29.94 in1013.9 mb 0.00 in0.0 mm 0.00 in0.0 mm 0.04 in1.0 mm
08:49 PM 40.2°F4.6°C 18.7°F-7.4°C 42% 1.8 mph 2.9 kmh 8.0 mph12.9 kmh 29.94 in1013.9 mb 0.00 in0.0 mm 0.00 in0.0 mm 0.04 in1.0 mm
08:54 PM 39.8°F4.3°C 18.3°F-7.6°C 42% 2.6 mph 4.2 kmh 4.4 mph7.1 kmh 29.94 in1013.9 mb 0.00 in0.0 mm 0.00 in0.0 mm 0.04 in1.0 mm
09:00 PM 39.5°F4.2°C 18.1°F-7.7°C 42% Calm Calm 3.2 mph5.1 kmh 29.94 in1013.9 mb 0.00 in0.0 mm 0.00 in0.0 mm 0.04 in1.0 mm
09:05 PM 39.3°F4.1°C 18.4°F-7.6°C 43% Calm Calm 2.2 mph3.5 kmh 29.94 in1013.9 mb 0.00 in0.0 mm 0.00 in0.0 mm 0.04 in1.0 mm
09:10 PM 39.1°F3.9°C 18.3°F-7.6°C 43% Calm Calm -- 29.94 in1013.9 mb 0.00 in0.0 mm 0.00 in0.0 mm 0.04 in1.0 mm
09:15 PM 38.9°F3.8°C 18.6°F-7.4°C 44% Calm Calm -- 29.94 in1013.9 mb 0.00 in0.0 mm 0.00 in0.0 mm 0.04 in1.0 mm
09:22 PM 38.6°F3.7°C 18.9°F-7.3°C 45% Calm Calm -- 29.94 in1013.9 mb 0.00 in0.0 mm 0.00 in0.0 mm 0.04 in1.0 mm
09:27 PM 38.4°F3.6°C 18.7°F-7.4°C 45% Calm Calm -- 29.94 in1013.9 mb 0.00 in0.0 mm 0.00 in0.0 mm 0.04 in1.0 mm
09:32 PM 38.2°F3.4°C 19.1°F-7.2°C 46% Calm Calm -- 29.94 in1013.9 mb 0.00 in0.0 mm 0.00 in0.0 mm 0.04 in1.0 mm
09:38 PM 38.0°F3.3°C 19.9°F-6.7°C 48% Calm Calm -- 29.94 in1013.9 mb 0.00 in0.0 mm 0.00 in0.0 mm 0.04 in1.0 mm
09:44 PM 38.0°F3.3°C 19.9°F-6.7°C 48% Calm Calm -- 29.94 in1013.9 mb 0.00 in0.0 mm 0.00 in0.0 mm 0.04 in1.0 mm
09:49 PM 38.0°F3.3°C 20.9°F-6.2°C 50% Calm Calm -- 29.94 in1013.9 mb 0.00 in0.0 mm 0.00 in0.0 mm 0.04 in1.0 mm
09:54 PM 37.8°F3.2°C 21.2°F-6.0°C 51% Calm Calm -- 29.94 in1013.9 mb 0.00 in0.0 mm 0.00 in0.0 mm 0.04 in1.0 mm
09:59 PM 37.8°F3.2°C 21.7°F-5.7°C 52% Calm Calm -- 29.94 in1013.9 mb 0.00 in0.0 mm 0.00 in0.0 mm 0.04 in1.0 mm
10:04 PM 37.8°F3.2°C 22.6°F-5.2°C 54% 2.6 mph WSW4.2 kmh WSW 4.4 mph7.1 kmh 29.94 in1013.9 mb 0.00 in0.0 mm 0.00 in0.0 mm 0.04 in1.0 mm
10:09 PM 37.8°F3.2°C 22.1°F-5.5°C 53% Calm Calm 4.4 mph7.1 kmh 29.94 in1013.9 mb 0.00 in0.0 mm 0.00 in0.0 mm 0.04 in1.0 mm
10:14 PM 37.7°F3.2°C 22.0°F-5.6°C 53% Calm Calm 2.6 mph4.2 kmh 29.94 in1013.9 mb 0.00 in0.0 mm 0.00 in0.0 mm 0.04 in1.0 mm
10:19 PM 37.5°F3.1°C 21.8°F-5.7°C 53% Calm Calm -- 29.94 in1013.9 mb 0.00 in0.0 mm 0.00 in0.0 mm 0.04 in1.0 mm
10:25 PM 37.7°F3.2°C 22.5°F-5.3°C 54% 2.0 mph WSW3.2 kmh WSW 4.0 mph6.4 kmh 29.94 in1013.9 mb 0.00 in0.0 mm 0.00 in0.0 mm 0.04 in1.0 mm
10:30 PM 37.7°F3.2°C 22.5°F-5.3°C 54% Calm Calm 4.0 mph6.4 kmh 29.94 in1013.9 mb 0.00 in0.0 mm 0.00 in0.0 mm 0.04 in1.0 mm
10:35 PM 37.5°F3.1°C 22.7°F-5.2°C 55% Calm Calm -- 29.94 in1013.9 mb 0.00 in0.0 mm 0.00 in0.0 mm 0.04 in1.0 mm
10:40 PM 37.5°F3.1°C 22.7°F-5.2°C 55% Calm Calm -- 29.94 in1013.9 mb 0.00 in0.0 mm 0.00 in0.0 mm 0.04 in1.0 mm
10:45 PM 37.3°F2.9°C 23.0°F-5.0°C 56% Calm Calm -- 29.94 in1013.9 mb 0.00 in0.0 mm 0.00 in0.0 mm 0.04 in1.0 mm
10:50 PM 37.1°F2.8°C 23.2°F-4.9°C 57% Calm Calm -- 29.94 in1013.9 mb 0.00 in0.0 mm 0.00 in0.0 mm 0.04 in1.0 mm
10:55 PM 37.1°F2.8°C 23.7°F-4.6°C 58% Calm Calm -- 29.91 in1012.9 mb 0.00 in0.0 mm 0.00 in0.0 mm 0.04 in1.0 mm
11:00 PM 37.1°F2.8°C 24.5°F-4.2°C 60% 3.4 mph SSE5.5 kmh SSE 4.0 mph6.4 kmh 29.91 in1012.9 mb 0.00 in0.0 mm 0.00 in0.0 mm 0.04 in1.0 mm
11:06 PM 36.9°F2.7°C 24.7°F-4.1°C 61% Calm Calm 4.0 mph6.4 kmh 29.91 in1012.9 mb 0.00 in0.0 mm 0.00 in0.0 mm 0.04 in1.0 mm
11:11 PM 36.8°F2.7°C 24.6°F-4.1°C 61% Calm Calm -- 29.91 in1012.9 mb 0.00 in0.0 mm 0.00 in0.0 mm 0.04 in1.0 mm
11:16 PM 36.8°F2.7°C 24.6°F-4.1°C 61% 1.9 mph SSE3.1 kmh SSE 4.0 mph6.4 kmh 29.91 in1012.9 mb 0.00 in0.0 mm 0.00 in0.0 mm 0.04 in1.0 mm
11:21 PM 36.6°F2.6°C 24.4°F-4.2°C 61% Calm Calm 4.0 mph6.4 kmh 29.91 in1012.9 mb 0.00 in0.0 mm 0.00 in0.0 mm 0.04 in1.0 mm
11:27 PM 36.2°F2.3°C 24.0°F-4.4°C 61% Calm Calm -- 29.91 in1012.9 mb 0.00 in0.0 mm 0.00 in0.0 mm 0.04 in1.0 mm
11:32 PM 35.7°F2.1°C 23.6°F-4.7°C 61% Calm Calm -- 29.91 in1012.9 mb 0.00 in0.0 mm 0.00 in0.0 mm 0.04 in1.0 mm
11:37 PM 35.5°F1.9°C 23.0°F-5.0°C 60% Calm Calm 2.2 mph3.5 kmh 29.91 in1012.9 mb 0.00 in0.0 mm 0.00 in0.0 mm 0.04 in1.0 mm
11:42 PM 35.1°F1.7°C 23.4°F-4.8°C 62% 2.6 mph SSE4.2 kmh SSE 4.0 mph6.4 kmh 29.91 in1012.9 mb 0.00 in0.0 mm 0.00 in0.0 mm 0.04 in1.0 mm
11:47 PM 34.8°F1.6°C 23.1°F-4.9°C 62% Calm Calm 5.0 mph8.0 kmh 29.91 in1012.9 mb 0.00 in0.0 mm 0.00 in0.0 mm 0.04 in1.0 mm
11:52 PM 34.4°F1.3°C 23.1°F-4.9°C 63% 2.4 mph S3.9 kmh S 5.0 mph8.0 kmh 29.91 in1012.9 mb 0.00 in0.0 mm 0.00 in0.0 mm 0.04 in1.0 mm
11:57 PM 34.2°F1.2°C 23.7°F-4.6°C 65% 3.3 mph S5.3 kmh S 4.4 mph7.1 kmh 29.88 in1011.9 mb 0.00 in0.0 mm 0.00 in0.0 mm 0.04 in1.0 mm